Senatobia, MS

12:37 PM CDT ye 23 April, 2017 (GMT -0500)
NWCC - RC Pugh Library | | Change Station

Elev 289 ft 34.63 °N, 89.97 °W | Updated 18 seconds ago

Nubizita
Nubizita
52.9 °F
Feels Like 52.9 °F
N
8.3
Vento Variema Vento from Nordo
Gusts 9.8 mph

Hodie
High -- | Low -- °F
--% Chance of Precip.
Yesterday
High -- | Low -- °F
Precip. -- in
Presuro 29.96 in
Videbleso 10.0 milii
Clouds Grandaparte Nubizita 3000 ft
Grandaparte Nubizita 4600 ft
Rosifopunto 42 °F
Humideso 65%
Rainfall 0.00 in
Snow Depth Not available.
6:18 AM 7:38 PM
Waning Crescent, 10% visible
METAR KUTA 231735Z AUTO 35011G16KT 10SM BKN030 BKN046 13/07 A2996 RMK AO2 TSNO
Presuro 29.96 in
Videbleso 10.0 milii
Clouds Grandaparte Nubizita 3000 ft
Grandaparte Nubizita 4600 ft
Rosifopunto 42 °F
Humideso 65%
Rainfall 0.00 in
Snow Depth Not available.
6:18 AM 7:38 PM
Waning Crescent, 10% visible
METAR KUTA 231735Z AUTO 35011G16KT 10SM BKN030 BKN046 13/07 A2996 RMK AO2 TSNO

Get Severe Weather Alerts

Thanks for signing up!

Be on the lookout for a verification email in your inbox.

You'll start receiving the daily forecast at 8 AM.

×

10-Day Weather Forecast

Almanac

Astronomy

Apr. 23, 2017 Rise Set
Actual Time
Civil Twilight
Nautical Twilight
Astronomical Twilight
Moon
Length Of Visible Light
Length of Day
Tomorrow will be .
, % of the Moon is Illuminated

Today's Extremes

State Highs State Lows

Community

WunderPhotos

WunderBlog® & News

Nearby

Air Quality

  Air Quality AQ Index Pollutant
Not available.

Snow Depth

Station Depth Elevation

Earthquake Activity

City Distance Mag. Time & Date
Minimum magnitude displayed is 2.5.

Coastal Water Temperatures

Loko Temperaturo

Stations

Nearby Weather Stations

Station Location Temp Ventokoldeso Rosifopunto Humideso Vento Precip. Elev Aktualigita Type
                   

Watches & Warnings

There are currently no watches in effect.